sensor_id;sensor_type;location;lat;lon;timestamp;pressure;altitude;pressure_sealevel;temperature;humidity
69879;BME280;57161;43.136;24.706;2023-02-28T00:01:30;99954.44;;;7.31;87.31
69879;BME280;57161;43.136;24.706;2023-02-28T00:03:56;99908.66;;;6.87;87.63
69879;BME280;57161;43.136;24.706;2023-02-28T00:06:22;99961.53;;;7.21;87.82
69879;BME280;57161;43.136;24.706;2023-02-28T00:08:48;99903.59;;;6.86;87.92
69879;BME280;57161;43.136;24.706;2023-02-28T00:11:14;99962.78;;;7.26;87.29
69879;BME280;57161;43.136;24.706;2023-02-28T00:13:42;99974.66;;;7.26;87.43
69879;BME280;57161;43.136;24.706;2023-02-28T00:16:11;99984.03;;;7.29;87.61
69879;BME280;57161;43.136;24.706;2023-02-28T00:18:37;99987.81;;;7.26;87.73
69879;BME280;57161;43.136;24.706;2023-02-28T00:21:03;99976.47;;;7.35;87.34
69879;BME280;57161;43.136;24.706;2023-02-28T00:23:29;99946.34;;;7.05;87.31
69879;BME280;57161;43.136;24.706;2023-02-28T00:25:54;99998.72;;;7.35;87.56
69879;BME280;57161;43.136;24.706;2023-02-28T00:28:21;100015.13;;;7.33;87.77
69879;BME280;57161;43.136;24.706;2023-02-28T00:30:47;99999.19;;;7.28;87.97
69879;BME280;57161;43.136;24.706;2023-02-28T00:33:13;100032.53;;;7.28;88.31
69879;BME280;57161;43.136;24.706;2023-02-28T00:35:39;100001.16;;;7.10;88.87
69879;BME280;57161;43.136;24.706;2023-02-28T00:38:04;99996.59;;;7.07;89.06
69879;BME280;57161;43.136;24.706;2023-02-28T00:40:30;99996.66;;;7.18;88.97
69879;BME280;57161;43.136;24.706;2023-02-28T00:42:55;100007.28;;;7.31;88.49
69879;BME280;57161;43.136;24.706;2023-02-28T00:45:21;100009.28;;;7.19;89.08
69879;BME280;57161;43.136;24.706;2023-02-28T00:47:46;99987.22;;;6.99;89.24
69879;BME280;57161;43.136;24.706;2023-02-28T00:50:20;100033.53;;;7.25;89.45
69879;BME280;57161;43.136;24.706;2023-02-28T00:52:47;100029.50;;;7.20;89.56
69879;BME280;57161;43.136;24.706;2023-02-28T00:55:12;100025.47;;;7.27;89.40
69879;BME280;57161;43.136;24.706;2023-02-28T00:57:38;100020.34;;;7.08;89.86
69879;BME280;57161;43.136;24.706;2023-02-28T01:00:05;99984.47;;;7.05;89.64
69879;BME280;57161;43.136;24.706;2023-02-28T01:02:30;100030.56;;;7.34;88.93
69879;BME280;57161;43.136;24.706;2023-02-28T01:04:56;99977.16;;;7.07;89.06
69879;BME280;57161;43.136;24.706;2023-02-28T01:07:22;100023.22;;;7.42;88.83
69879;BME280;57161;43.136;24.706;2023-02-28T01:09:48;99985.31;;;7.39;87.03
69879;BME280;57161;43.136;24.706;2023-02-28T01:12:13;100035.13;;;7.59;87.47
69879;BME280;57161;43.136;24.706;2023-02-28T01:14:39;99977.97;;;7.30;87.03
69879;BME280;57161;43.136;24.706;2023-02-28T01:17:05;100006.06;;;7.60;86.98
69879;BME280;57161;43.136;24.706;2023-02-28T01:19:30;100010.63;;;7.69;86.16
69879;BME280;57161;43.136;24.706;2023-02-28T01:21:56;100002.28;;;7.69;86.15
69879;BME280;57161;43.136;24.706;2023-02-28T01:24:21;99953.47;;;7.45;85.93
69879;BME280;57161;43.136;24.706;2023-02-28T01:26:47;100020.00;;;7.82;85.28
69879;BME280;57161;43.136;24.706;2023-02-28T01:29:12;99973.19;;;7.59;85.13
69879;BME280;57161;43.136;24.706;2023-02-28T01:31:38;99997.72;;;7.77;85.18
69879;BME280;57161;43.136;24.706;2023-02-28T01:34:03;99969.38;;;7.45;85.63
69879;BME280;57161;43.136;24.706;2023-02-28T01:36:29;99954.72;;;7.39;85.51
69879;BME280;57161;43.136;24.706;2023-02-28T01:38:55;100013.19;;;7.83;85.18
69879;BME280;57161;43.136;24.706;2023-02-28T01:41:23;100015.19;;;7.83;85.63
69879;BME280;57161;43.136;24.706;2023-02-28T01:46:15;99981.28;;;7.62;85.94
69879;BME280;57161;43.136;24.706;2023-02-28T01:49:11;100004.81;;;7.89;85.70
69879;BME280;57161;43.136;24.706;2023-02-28T01:51:47;100017.97;;;7.94;85.22
69879;BME280;57161;43.136;24.706;2023-02-28T01:54:25;99977.78;;;7.67;85.61
69879;BME280;57161;43.136;24.706;2023-02-28T01:57:01;100022.78;;;7.88;86.01
69879;BME280;57161;43.136;24.706;2023-02-28T01:59:57;100019.72;;;7.80;86.32
69879;BME280;57161;43.136;24.706;2023-02-28T02:02:25;100005.06;;;7.63;86.91
69879;BME280;57161;43.136;24.706;2023-02-28T02:07:20;99992.91;;;7.44;89.29
69879;BME280;57161;43.136;24.706;2023-02-28T02:09:45;99923.56;;;6.96;89.76
69879;BME280;57161;43.136;24.706;2023-02-28T02:16:03;99981.47;;;7.14;91.42
69879;BME280;57161;43.136;24.706;2023-02-28T02:37:11;99969.31;;;7.00;92.12
69879;BME280;57161;43.136;24.706;2023-02-28T02:40:20;99971.84;;;7.15;91.54
69879;BME280;57161;43.136;24.706;2023-02-28T02:45:40;99919.47;;;6.80;91.85
69879;BME280;57161;43.136;24.706;2023-02-28T02:48:12;99982.00;;;7.18;91.97
69879;BME280;57161;43.136;24.706;2023-02-28T02:50:45;99992.63;;;7.31;92.18
69879;BME280;57161;43.136;24.706;2023-02-28T02:53:14;99986.28;;;7.19;92.10
69879;BME280;57161;43.136;24.706;2023-02-28T02:55:46;99993.88;;;7.24;92.76
69879;BME280;57161;43.136;24.706;2023-02-28T02:58:21;99958.16;;;6.95;91.90
69879;BME280;57161;43.136;24.706;2023-02-28T03:00:55;100008.50;;;7.13;92.53
69879;BME280;57161;43.136;24.706;2023-02-28T03:03:23;99991.56;;;7.11;93.22
69879;BME280;57161;43.136;24.706;2023-02-28T03:05:55;100008.53;;;7.25;92.72
69879;BME280;57161;43.136;24.706;2023-02-28T03:08:21;99940.19;;;6.79;92.77
69879;BME280;57161;43.136;24.706;2023-02-28T03:10:52;100021.41;;;7.28;92.56
69879;BME280;57161;43.136;24.706;2023-02-28T03:26:50;100004.13;;;6.90;95.30
69879;BME280;57161;43.136;24.706;2023-02-28T03:29:26;100028.63;;;6.91;96.11
69879;BME280;57161;43.136;24.706;2023-02-28T03:32:18;100022.94;;;6.63;97.29
69879;BME280;57161;43.136;24.706;2023-02-28T03:37:32;100014.50;;;6.41;97.32
69879;BME280;57161;43.136;24.706;2023-02-28T03:40:11;100028.63;;;6.43;96.79
69879;BME280;57161;43.136;24.706;2023-02-28T03:42:41;100030.38;;;6.41;96.62
69879;BME280;57161;43.136;24.706;2023-02-28T03:45:14;100020.44;;;6.23;97.59
69879;BME280;57161;43.136;24.706;2023-02-28T03:48:00;100018.16;;;6.21;97.66
69879;BME280;57161;43.136;24.706;2023-02-28T03:53:09;99966.09;;;5.79;98.23
69879;BME280;57161;43.136;24.706;2023-02-28T03:55:47;99961.53;;;5.76;97.64
69879;BME280;57161;43.136;24.706;2023-02-28T04:01:39;100032.03;;;5.90;99.09
69879;BME280;57161;43.136;24.706;2023-02-28T04:04:07;100034.09;;;5.95;98.71
69879;BME280;57161;43.136;24.706;2023-02-28T04:06:34;100038.53;;;5.87;97.87
69879;BME280;57161;43.136;24.706;2023-02-28T04:09:00;100039.50;;;5.84;98.73
69879;BME280;57161;43.136;24.706;2023-02-28T04:11:36;100037.44;;;5.79;98.66
69879;BME280;57161;43.136;24.706;2023-02-28T04:14:03;100032.34;;;5.71;98.88
69879;BME280;57161;43.136;24.706;2023-02-28T04:16:30;100007.03;;;5.58;98.60
69879;BME280;57161;43.136;24.706;2023-02-28T04:18:55;100042.06;;;5.87;97.84
69879;BME280;57161;43.136;24.706;2023-02-28T04:21:38;100042.06;;;5.87;97.52
69879;BME280;57161;43.136;24.706;2023-02-28T04:24:05;100012.38;;;5.67;97.28
69879;BME280;57161;43.136;24.706;2023-02-28T04:26:36;100023.16;;;5.60;97.85
69879;BME280;57161;43.136;24.706;2023-02-28T04:29:07;100055.34;;;5.78;97.47
69879;BME280;57161;43.136;24.706;2023-02-28T04:31:33;100059.81;;;5.69;98.11
69879;BME280;57161;43.136;24.706;2023-02-28T04:33:59;100052.28;;;5.50;99.02
69879;BME280;57161;43.136;24.706;2023-02-28T04:36:25;100066.41;;;5.52;98.93
69879;BME280;57161;43.136;24.706;2023-02-28T04:38:51;100067.41;;;5.49;98.40
69879;BME280;57161;43.136;24.706;2023-02-28T04:41:18;100048.75;;;5.23;98.55
69879;BME280;57161;43.136;24.706;2023-02-28T04:43:44;100043.88;;;5.18;99.25
69879;BME280;57161;43.136;24.706;2023-02-28T04:46:09;100062.03;;;5.39;99.05
69879;BME280;57161;43.136;24.706;2023-02-28T04:48:37;100072.75;;;5.32;99.03
69879;BME280;57161;43.136;24.706;2023-02-28T04:51:09;100077.41;;;5.20;99.52
69879;BME280;57161;43.136;24.706;2023-02-28T04:53:36;100070.81;;;5.18;99.58
69879;BME280;57161;43.136;24.706;2023-02-28T04:56:03;100085.94;;;5.37;99.27
69879;BME280;57161;43.136;24.706;2023-02-28T04:58:29;100067.09;;;5.21;98.58
69879;BME280;57161;43.136;24.706;2023-02-28T05:01:01;100096.66;;;5.29;98.22
69879;BME280;57161;43.136;24.706;2023-02-28T05:03:27;100080.38;;;5.17;98.79
69879;BME280;57161;43.136;24.706;2023-02-28T05:05:52;100093.63;;;5.27;98.93
69879;BME280;57161;43.136;24.706;2023-02-28T05:08:18;100066.75;;;5.13;98.31
69879;BME280;57161;43.136;24.706;2023-02-28T05:10:43;100100.59;;;5.43;98.40
69879;BME280;57161;43.136;24.706;2023-02-28T05:13:12;100096.91;;;5.52;97.08
69879;BME280;57161;43.136;24.706;2023-02-28T05:15:37;100101.91;;;5.48;97.00
69879;BME280;57161;43.136;24.706;2023-02-28T05:18:03;100090.09;;;5.27;97.33
69879;BME280;57161;43.136;24.706;2023-02-28T05:20:28;100081.16;;;5.37;97.19
69879;BME280;57161;43.136;24.706;2023-02-28T05:22:54;100097.69;;;5.32;97.03
69879;BME280;57161;43.136;24.706;2023-02-28T05:25:21;100100.13;;;5.24;96.99
69879;BME280;57161;43.136;24.706;2023-02-28T05:27:47;100100.81;;;5.19;97.70
69879;BME280;57161;43.136;24.706;2023-02-28T05:30:13;100095.16;;;5.08;98.04
69879;BME280;57161;43.136;24.706;2023-02-28T05:32:39;100096.72;;;5.15;97.90
69879;BME280;57161;43.136;24.706;2023-02-28T05:35:11;100106.56;;;5.16;97.68
69879;BME280;57161;43.136;24.706;2023-02-28T05:37:37;100105.25;;;5.11;97.76
69879;BME280;57161;43.136;24.706;2023-02-28T05:40:04;100107.25;;;5.10;98.12
69879;BME280;57161;43.136;24.706;2023-02-28T05:42:32;100118.56;;;5.07;98.30
69879;BME280;57161;43.136;24.706;2023-02-28T05:44:57;100125.28;;;5.21;98.66
69879;BME280;57161;43.136;24.706;2023-02-28T05:47:23;100122.31;;;5.24;97.73
69879;BME280;57161;43.136;24.706;2023-02-28T05:49:48;100118.63;;;5.12;97.88
69879;BME280;57161;43.136;24.706;2023-02-28T05:52:14;100137.03;;;5.16;98.24
69879;BME280;57161;43.136;24.706;2023-02-28T05:54:40;100072.34;;;4.78;97.49
69879;BME280;57161;43.136;24.706;2023-02-28T05:57:05;100135.13;;;5.22;97.89
69879;BME280;57161;43.136;24.706;2023-02-28T05:59:31;100131.00;;;5.17;97.87
69879;BME280;57161;43.136;24.706;2023-02-28T06:01:56;100138.94;;;5.24;97.48
69879;BME280;57161;43.136;24.706;2023-02-28T06:04:22;100118.84;;;5.09;96.98
69879;BME280;57161;43.136;24.706;2023-02-28T06:06:48;100075.31;;;4.74;97.14
69879;BME280;57161;43.136;24.706;2023-02-28T06:09:14;100139.97;;;5.06;97.31
69879;BME280;57161;43.136;24.706;2023-02-28T06:11:40;100140.72;;;5.07;97.70
69879;BME280;57161;43.136;24.706;2023-02-28T06:14:06;100131.56;;;5.01;98.13
69879;BME280;57161;43.136;24.706;2023-02-28T06:16:34;100150.97;;;5.21;97.65
69879;BME280;57161;43.136;24.706;2023-02-28T06:19:01;100101.44;;;4.88;97.05
69879;BME280;57161;43.136;24.706;2023-02-28T06:21:28;100142.50;;;5.10;96.60
69879;BME280;57161;43.136;24.706;2023-02-28T06:23:54;100156.91;;;5.14;97.05
69879;BME280;57161;43.136;24.706;2023-02-28T06:26:20;100165.16;;;5.08;97.49
69879;BME280;57161;43.136;24.706;2023-02-28T06:28:46;100173.47;;;5.08;98.13
69879;BME280;57161;43.136;24.706;2023-02-28T06:31:14;100167.28;;;4.99;97.69
69879;BME280;57161;43.136;24.706;2023-02-28T06:33:40;100166.47;;;4.78;99.43
69879;BME280;57161;43.136;24.706;2023-02-28T06:36:06;100156.66;;;4.77;99.73
69879;BME280;57161;43.136;24.706;2023-02-28T06:38:34;100127.97;;;4.60;99.17
69879;BME280;57161;43.136;24.706;2023-02-28T06:41:00;100166.84;;;4.86;99.81
69879;BME280;57161;43.136;24.706;2023-02-28T06:43:29;100130.41;;;4.72;99.53
69879;BME280;57161;43.136;24.706;2023-02-28T06:45:55;100113.91;;;4.63;99.00
69879;BME280;57161;43.136;24.706;2023-02-28T06:48:21;100161.47;;;4.97;98.53
69879;BME280;57161;43.136;24.706;2023-02-28T06:50:47;100163.25;;;5.00;98.20
69879;BME280;57161;43.136;24.706;2023-02-28T06:53:12;100155.72;;;5.00;97.45
69879;BME280;57161;43.136;24.706;2023-02-28T06:55:39;100178.53;;;5.10;97.51
69879;BME280;57161;43.136;24.706;2023-02-28T06:58:05;100133.59;;;4.86;96.53
69879;BME280;57161;43.136;24.706;2023-02-28T07:00:44;100132.31;;;4.66;97.41
69879;BME280;57161;43.136;24.706;2023-02-28T07:03:11;100171.63;;;4.70;98.07
69879;BME280;57161;43.136;24.706;2023-02-28T07:05:37;100146.16;;;4.66;98.26
69879;BME280;57161;43.136;24.706;2023-02-28T07:08:03;100154.75;;;4.68;99.03
69879;BME280;57161;43.136;24.706;2023-02-28T07:10:30;100148.25;;;4.71;98.25
69879;BME280;57161;43.136;24.706;2023-02-28T07:12:55;100164.31;;;4.67;97.89
69879;BME280;57161;43.136;24.706;2023-02-28T07:15:21;100146.28;;;4.57;98.24
69879;BME280;57161;43.136;24.706;2023-02-28T07:17:46;100177.00;;;4.74;98.12
69879;BME280;57161;43.136;24.706;2023-02-28T07:20:12;100203.31;;;4.84;98.27
69879;BME280;57161;43.136;24.706;2023-02-28T07:22:38;100199.50;;;4.81;98.08
69879;BME280;57161;43.136;24.706;2023-02-28T07:25:04;100200.69;;;4.60;98.46
69879;BME280;57161;43.136;24.706;2023-02-28T07:27:30;100190.66;;;4.48;98.86
69879;BME280;57161;43.136;24.706;2023-02-28T07:29:56;100156.44;;;4.31;99.80
69879;BME280;57161;43.136;24.706;2023-02-28T07:32:22;100122.28;;;4.04;99.51
69879;BME280;57161;43.136;24.706;2023-02-28T07:34:47;100173.66;;;4.55;99.47
69879;BME280;57161;43.136;24.706;2023-02-28T07:37:14;100179.09;;;4.64;98.37
69879;BME280;57161;43.136;24.706;2023-02-28T07:39:40;100156.44;;;4.31;99.14
69879;BME280;57161;43.136;24.706;2023-02-28T07:42:07;100203.19;;;4.58;98.35
69879;BME280;57161;43.136;24.706;2023-02-28T07:44:36;100139.47;;;4.08;98.44
69879;BME280;57161;43.136;24.706;2023-02-28T07:47:07;100170.94;;;4.26;99.48
69879;BME280;57161;43.136;24.706;2023-02-28T07:49:33;100212.31;;;4.64;99.79
69879;BME280;57161;43.136;24.706;2023-02-28T07:51:59;100210.22;;;4.74;98.68
69879;BME280;57161;43.136;24.706;2023-02-28T07:54:24;100210.88;;;4.83;98.48
69879;BME280;57161;43.136;24.706;2023-02-28T07:56:50;100212.56;;;4.96;96.66
69879;BME280;57161;43.136;24.706;2023-02-28T07:59:15;100213.75;;;4.89;96.36
69879;BME280;57161;43.136;24.706;2023-02-28T08:01:41;100170.31;;;4.66;96.45
69879;BME280;57161;43.136;24.706;2023-02-28T08:04:06;100217.91;;;4.99;96.49
69879;BME280;57161;43.136;24.706;2023-02-28T08:06:32;100214.84;;;4.97;95.35
69879;BME280;57161;43.136;24.706;2023-02-28T08:08:57;100218.88;;;4.96;96.39
69879;BME280;57161;43.136;24.706;2023-02-28T08:11:24;100214.94;;;5.03;96.39
69879;BME280;57161;43.136;24.706;2023-02-28T08:13:49;100220.16;;;5.16;95.59
69879;BME280;57161;43.136;24.706;2023-02-28T08:16:16;100214.94;;;5.03;95.01
69879;BME280;57161;43.136;24.706;2023-02-28T08:18:47;100198.66;;;4.90;96.07
69879;BME280;57161;43.136;24.706;2023-02-28T08:21:12;100208.63;;;5.02;96.63
69879;BME280;57161;43.136;24.706;2023-02-28T08:23:38;100217.09;;;5.13;96.68
69879;BME280;57161;43.136;24.706;2023-02-28T08:26:04;100154.16;;;4.79;95.87
69879;BME280;57161;43.136;24.706;2023-02-28T08:28:30;100217.47;;;5.21;95.81
69879;BME280;57161;43.136;24.706;2023-02-28T08:30:56;100168.66;;;4.89;95.16
69879;BME280;57161;43.136;24.706;2023-02-28T08:33:22;100162.00;;;4.80;94.87
69879;BME280;57161;43.136;24.706;2023-02-28T08:35:48;100180.56;;;4.95;95.44
69879;BME280;57161;43.136;24.706;2023-02-28T08:38:13;100172.66;;;4.88;95.52
69879;BME280;57161;43.136;24.706;2023-02-28T08:40:39;100198.69;;;5.10;95.85
69879;BME280;57161;43.136;24.706;2023-02-28T08:43:05;100182.00;;;5.05;95.59
69879;BME280;57161;43.136;24.706;2023-02-28T08:45:31;100137.84;;;4.66;96.20
69879;BME280;57161;43.136;24.706;2023-02-28T08:47:56;100153.59;;;4.75;96.38
69879;BME280;57161;43.136;24.706;2023-02-28T08:50:22;100190.69;;;4.98;96.43
69879;BME280;57161;43.136;24.706;2023-02-28T08:52:48;100207.31;;;4.98;96.72
69879;BME280;57161;43.136;24.706;2023-02-28T08:55:13;100221.53;;;5.05;96.38
69879;BME280;57161;43.136;24.706;2023-02-28T08:57:39;100218.06;;;5.10;95.80
69879;BME280;57161;43.136;24.706;2023-02-28T09:00:05;100218.38;;;4.98;95.95
69879;BME280;57161;43.136;24.706;2023-02-28T09:02:31;100224.16;;;5.15;95.99
69879;BME280;57161;43.136;24.706;2023-02-28T09:04:57;100212.63;;;5.01;96.05
69879;BME280;57161;43.136;24.706;2023-02-28T09:07:23;100213.50;;;5.07;96.60
69879;BME280;57161;43.136;24.706;2023-02-28T09:09:49;100214.66;;;5.01;96.83
69879;BME280;57161;43.136;24.706;2023-02-28T09:12:27;100214.66;;;5.01;96.08
69879;BME280;57161;43.136;24.706;2023-02-28T09:14:53;100192.91;;;4.94;95.78
69879;BME280;57161;43.136;24.706;2023-02-28T09:17:19;100238.03;;;5.15;95.77
69879;BME280;57161;43.136;24.706;2023-02-28T09:19:48;100243.84;;;5.17;96.53
69879;BME280;57161;43.136;24.706;2023-02-28T09:22:14;100234.78;;;5.16;95.99
69879;BME280;57161;43.136;24.706;2023-02-28T09:24:39;100233.34;;;5.21;95.75
69879;BME280;57161;43.136;24.706;2023-02-28T09:27:05;100235.22;;;5.29;95.46
69879;BME280;57161;43.136;24.706;2023-02-28T09:29:32;100239.44;;;5.25;95.55
69879;BME280;57161;43.136;24.706;2023-02-28T09:31:58;100210.59;;;5.17;94.52
69879;BME280;57161;43.136;24.706;2023-02-28T09:34:27;100228.31;;;5.39;94.76
69879;BME280;57161;43.136;24.706;2023-02-28T09:36:53;100224.28;;;5.40;94.10
69879;BME280;57161;43.136;24.706;2023-02-28T09:39:20;100134.69;;;4.88;94.44
69879;BME280;57161;43.136;24.706;2023-02-28T09:41:48;100218.00;;;5.40;93.98
69879;BME280;57161;43.136;24.706;2023-02-28T09:44:26;100237.94;;;5.64;94.75
69879;BME280;57161;43.136;24.706;2023-02-28T09:46:58;100235.88;;;5.80;92.94
69879;BME280;57161;43.136;24.706;2023-02-28T09:49:33;100190.81;;;5.44;92.47
69879;BME280;57161;43.136;24.706;2023-02-28T09:52:07;100234.22;;;5.88;91.68
69879;BME280;57161;43.136;24.706;2023-02-28T09:54:36;100246.25;;;5.85;92.29
69879;BME280;57161;43.136;24.706;2023-02-28T10:05:56;100224.19;;;5.90;91.93
69879;BME280;57161;43.136;24.706;2023-02-28T10:08:32;100169.56;;;5.56;92.12
69879;BME280;57161;43.136;24.706;2023-02-28T10:11:01;100240.25;;;6.07;92.31
69879;BME280;57161;43.136;24.706;2023-02-28T10:13:56;100233.19;;;6.06;92.36
69879;BME280;57161;43.136;24.706;2023-02-28T10:17:03;100218.06;;;6.07;90.49
69879;BME280;57161;43.136;24.706;2023-02-28T10:24:48;100205.16;;;6.04;91.31
69879;BME280;57161;43.136;24.706;2023-02-28T10:27:22;100154.44;;;5.57;91.83
69879;BME280;57161;43.136;24.706;2023-02-28T10:29:53;100199.28;;;5.76;92.85
69879;BME280;57161;43.136;24.706;2023-02-28T10:32:31;100195.78;;;5.81;93.71
69879;BME280;57161;43.136;24.706;2023-02-28T10:35:18;100113.06;;;5.33;93.48
69879;BME280;57161;43.136;24.706;2023-02-28T10:37:50;100138.44;;;5.46;93.49
69879;BME280;57161;43.136;24.706;2023-02-28T10:43:04;100182.56;;;5.90;93.86
69879;BME280;57161;43.136;24.706;2023-02-28T10:45:32;100175.47;;;5.89;92.30
69879;BME280;57161;43.136;24.706;2023-02-28T10:48:05;100174.78;;;5.94;92.05
69879;BME280;57161;43.136;24.706;2023-02-28T10:56:03;100183.81;;;5.89;93.36
69879;BME280;57161;43.136;24.706;2023-02-28T10:58:51;100180.75;;;5.87;92.22
69879;BME280;57161;43.136;24.706;2023-02-28T11:03:44;100195.19;;;5.91;91.88
69879;BME280;57161;43.136;24.706;2023-02-28T11:06:21;100190.53;;;6.03;91.84
69879;BME280;57161;43.136;24.706;2023-02-28T11:08:55;100175.41;;;6.04;91.61
69879;BME280;57161;43.136;24.706;2023-02-28T11:11:25;100187.59;;;6.12;92.05
69879;BME280;57161;43.136;24.706;2023-02-28T11:13:56;100181.50;;;6.08;92.20
69879;BME280;57161;43.136;24.706;2023-02-28T11:16:22;100195.69;;;5.90;91.97
69879;BME280;57161;43.136;24.706;2023-02-28T11:18:57;100179.91;;;5.81;93.33
69879;BME280;57161;43.136;24.706;2023-02-28T11:21:41;100181.25;;;5.86;93.42
69879;BME280;57161;43.136;24.706;2023-02-28T11:24:29;100184.47;;;5.84;93.21
69879;BME280;57161;43.136;24.706;2023-02-28T11:26:56;100180.00;;;5.87;93.62
69879;BME280;57161;43.136;24.706;2023-02-28T11:29:30;100160.00;;;5.83;93.25
69879;BME280;57161;43.136;24.706;2023-02-28T11:34:29;100171.59;;;5.81;92.87
69879;BME280;57161;43.136;24.706;2023-02-28T11:36:58;100161.34;;;5.87;93.44
69879;BME280;57161;43.136;24.706;2023-02-28T11:39:24;100164.59;;;5.86;93.27
69879;BME280;57161;43.136;24.706;2023-02-28T11:55:50;100170.63;;;5.84;93.83
69879;BME280;57161;43.136;24.706;2023-02-28T12:01:22;100156.56;;;5.88;93.13
69879;BME280;57161;43.136;24.706;2023-02-28T12:03:58;100155.50;;;6.06;93.30
69879;BME280;57161;43.136;24.706;2023-02-28T12:06:45;100158.19;;;6.00;93.70
69879;BME280;57161;43.136;24.706;2023-02-28T12:10:24;100156.91;;;5.95;92.95
69879;BME280;57161;43.136;24.706;2023-02-28T12:18:09;100146.28;;;5.94;92.64
69879;BME280;57161;43.136;24.706;2023-02-28T12:28:58;100159.53;;;6.05;92.92
69879;BME280;57161;43.136;24.706;2023-02-28T12:31:36;100154.41;;;5.97;93.48
69879;BME280;57161;43.136;24.706;2023-02-28T12:34:07;100155.16;;;5.98;93.93
69879;BME280;57161;43.136;24.706;2023-02-28T12:36:36;100160.56;;;5.87;94.02
69879;BME280;57161;43.136;24.706;2023-02-28T12:39:17;100163.28;;;5.81;93.99
69879;BME280;57161;43.136;24.706;2023-02-28T12:41:54;100162.25;;;5.79;94.73
69879;BME280;57161;43.136;24.706;2023-02-28T12:47:04;100143.63;;;5.85;95.10
69879;BME280;57161;43.136;24.706;2023-02-28T12:49:33;100151.75;;;5.88;95.12
69879;BME280;57161;43.136;24.706;2023-02-28T12:52:01;100142.69;;;5.88;94.84
69879;BME280;57161;43.136;24.706;2023-02-28T12:54:38;100138.25;;;5.76;94.85
69879;BME280;57161;43.136;24.706;2023-02-28T12:59:51;100145.25;;;5.91;95.01
69879;BME280;57161;43.136;24.706;2023-02-28T13:05:13;100158.41;;;5.96;94.34
69879;BME280;57161;43.136;24.706;2023-02-28T13:10:52;100162.72;;;5.97;93.46
69879;BME280;57161;43.136;24.706;2023-02-28T13:13:24;100164.47;;;5.95;94.10
69879;BME280;57161;43.136;24.706;2023-02-28T13:16:08;100132.28;;;5.83;94.18
69879;BME280;57161;43.136;24.706;2023-02-28T13:18:37;100159.31;;;6.08;93.19
69879;BME280;57161;43.136;24.706;2023-02-28T13:21:08;100159.41;;;5.93;93.12
69879;BME280;57161;43.136;24.706;2023-02-28T13:23:57;100165.38;;;5.86;94.16
69879;BME280;57161;43.136;24.706;2023-02-28T13:29:00;100154.88;;;5.96;94.40
69879;BME280;57161;43.136;24.706;2023-02-28T13:31:27;100150.66;;;5.80;93.83
69879;BME280;57161;43.136;24.706;2023-02-28T13:36:26;100134.47;;;5.73;94.66
69879;BME280;57161;43.136;24.706;2023-02-28T13:38:59;100099.97;;;5.54;95.37
69879;BME280;57161;43.136;24.706;2023-02-28T13:49:30;100147.63;;;5.78;95.43
69879;BME280;57161;43.136;24.706;2023-02-28T13:54:48;100156.88;;;5.69;96.20
69879;BME280;57161;43.136;24.706;2023-02-28T13:57:27;100156.16;;;5.75;95.38
69879;BME280;57161;43.136;24.706;2023-02-28T14:03:07;100152.13;;;5.76;94.55
69879;BME280;57161;43.136;24.706;2023-02-28T14:05:36;100155.13;;;5.72;95.09
69879;BME280;57161;43.136;24.706;2023-02-28T14:08:10;100156.66;;;5.73;94.88
69879;BME280;57161;43.136;24.706;2023-02-28T14:10:46;100151.72;;;5.62;95.55
69879;BME280;57161;43.136;24.706;2023-02-28T14:13:40;100150.75;;;5.65;95.57
69879;BME280;57161;43.136;24.706;2023-02-28T14:16:11;100121.16;;;5.36;96.50
69879;BME280;57161;43.136;24.706;2023-02-28T14:18:42;100138.22;;;5.50;95.79
69879;BME280;57161;43.136;24.706;2023-02-28T14:21:11;100150.97;;;5.41;96.35
69879;BME280;57161;43.136;24.706;2023-02-28T14:24:22;100162.13;;;5.47;96.49
69879;BME280;57161;43.136;24.706;2023-02-28T14:26:57;100159.03;;;5.39;97.60
69879;BME280;57161;43.136;24.706;2023-02-28T14:32:15;100167.34;;;5.39;97.17
69879;BME280;57161;43.136;24.706;2023-02-28T14:37:29;100164.41;;;5.49;97.04
69879;BME280;57161;43.136;24.706;2023-02-28T14:39:57;100157.28;;;5.42;96.92
69879;BME280;57161;43.136;24.706;2023-02-28T14:42:35;100162.13;;;5.47;96.57
69879;BME280;57161;43.136;24.706;2023-02-28T14:45:03;100144.19;;;5.22;97.17
69879;BME280;57161;43.136;24.706;2023-02-28T14:47:31;100165.16;;;5.49;97.12
69879;BME280;57161;43.136;24.706;2023-02-28T14:49:59;100175.44;;;5.43;96.95
69879;BME280;57161;43.136;24.706;2023-02-28T14:52:32;100175.72;;;5.45;97.04
69879;BME280;57161;43.136;24.706;2023-02-28T14:55:06;100176.19;;;5.43;97.51
69879;BME280;57161;43.136;24.706;2023-02-28T14:57:43;100172.06;;;5.54;97.04
69879;BME280;57161;43.136;24.706;2023-02-28T15:02:46;100177.38;;;5.37;96.79
69879;BME280;57161;43.136;24.706;2023-02-28T15:07:44;100145.06;;;5.34;97.26
69879;BME280;57161;43.136;24.706;2023-02-28T15:12:58;100167.34;;;5.39;96.68
69879;BME280;57161;43.136;24.706;2023-02-28T15:15:33;100165.19;;;5.29;96.70
69879;BME280;57161;43.136;24.706;2023-02-28T15:18:02;100168.56;;;5.18;98.06
69879;BME280;57161;43.136;24.706;2023-02-28T15:20:32;100168.75;;;5.15;98.40
69879;BME280;57161;43.136;24.706;2023-02-28T15:22:58;100155.81;;;5.06;98.77
69879;BME280;57161;43.136;24.706;2023-02-28T15:25:25;100164.75;;;5.16;98.47
69879;BME280;57161;43.136;24.706;2023-02-28T15:27:56;100148.22;;;5.21;97.89
69879;BME280;57161;43.136;24.706;2023-02-28T15:30:29;100172.78;;;5.34;96.75
69879;BME280;57161;43.136;24.706;2023-02-28T15:35:34;100178.81;;;5.32;97.13
69879;BME280;57161;43.136;24.706;2023-02-28T15:38:17;100177.66;;;5.39;96.61
69879;BME280;57161;43.136;24.706;2023-02-28T15:40:45;100185.00;;;5.22;97.55